This is the latest recevied weather packets stored in our database for station/object SP5EB-3. If no packets are shown the sender has not sent any weather packets the latest 10 day(s).
| Time | Temp. | Humidity | Pressure | Rain* | Wind** | Luminosity | Snow |
|---|---|---|---|---|---|---|---|
| 1777341839 | 1.67° C | 99% | 1021 hPa | - | - | - | - |
| 1777341533 | 1.67° C | 99% | 1020.9 hPa | - | - | - | - |
| 1777341228 | 1.67° C | 99% | 1021 hPa | - | - | - | - |
| 1777340922 | 1.67° C | 99% | 1020.9 hPa | - | - | - | - |
| 1777340616 | 1.67° C | 99% | 1020.8 hPa | - | - | - | - |
| 1777340003 | 2.22° C | 99% | 1020.8 hPa | - | - | - | - |
| 1777339697 | 2.22° C | 99% | 1020.8 hPa | - | - | - | - |
| 1777339392 | 2.22° C | 99% | 1020.7 hPa | - | - | - | - |
| 1777339086 | 2.22° C | 99% | 1020.8 hPa | - | - | - | - |
| 1777338780 | 2.22° C | 99% | 1020.7 hPa | - | - | - | - |
| 1777336636 | 2.78° C | 99% | 1020.5 hPa | - | - | - | - |
| 1777335412 | 3.33° C | 99% | 1020.5 hPa | - | - | - | - |
| 1777333881 | 3.89° C | 99% | 1020.4 hPa | - | - | - | - |
| 1777332962 | 3.89° C | 99% | 1020.4 hPa | - | - | - | - |
| 1777332656 | 3.89° C | 99% | 1020.4 hPa | - | - | - | - |
| 1777329286 | 5° C | 99% | 1019.9 hPa | - | - | - | - |
| 1777313946 | 11.11° C | 99% | 1018 hPa | - | - | - | - |
| 1777313332 | 11.67° C | 99% | 1018 hPa | - | - | - | - |
| 1777312717 | 12.22° C | 99% | 1018 hPa | - | - | - | - |
| 1777312410 | 12.22° C | 99% | 1017.9 hPa | - | - | - | - |
| 1777311488 | 12.78° C | 99% | 1018 hPa | - | - | - | - |
| 1777311181 | 12.78° C | 99% | 1017.9 hPa | - | - | - | - |
| 1777310872 | 13.33° C | 99% | 1017.9 hPa | - | - | - | - |
| 1777310565 | 13.33° C | 99% | 1017.9 hPa | - | - | - | - |
| 1777310258 | 13.89° C | 99% | 1017.8 hPa | - | - | - | - |
* Rain since midnight (hover to see other rain measurements)
** Current wind speed in m/s (hover to see current wind gust speed)